Time;durP1;ratioP1;P1;durP2;ratioP2;P2;SDS_P1;SDS_P2;PMS_P1;PMS_P2;Temp;Humidity;BMP_temperature;BMP_pressure;BME280_temperature;BME280_humidity;BME280_pressure;Samples;Min_cycle;Max_cycle;Signal;HPM_P1;HPM_P2
2022/11/02 00:00:13;;;;;;;5.33;4.20;;;;;;;;;;5051121;28;20523;-77
2022/11/02 00:02:40;;;;;;;5.00;3.80;;;;;;;;;;5050504;28;20477;-76
2022/11/02 00:05:11;;;;;;;3.70;3.00;;;;;;;;;;5050744;28;20441;-75
2022/11/02 00:07:38;;;;;;;6.20;3.73;;;;;;;;;;5050468;28;20441;-75
2022/11/02 00:10:06;;;;;;;4.13;3.70;;;;;;;;;;5050216;28;20481;-76
2022/11/02 00:12:33;;;;;;;4.60;3.47;;;;;;;;;;5056301;28;20460;-76
2022/11/02 00:15:01;;;;;;;9.97;3.87;;;;;;;;;;5069903;28;20452;-76
2022/11/02 00:17:29;;;;;;;5.00;3.50;;;;;;;;;;5070427;28;20444;-76
2022/11/02 00:19:56;;;;;;;6.60;3.57;;;;;;;;;;5070377;28;20455;-76
2022/11/02 00:22:23;;;;;;;6.43;3.57;;;;;;;;;;5070153;28;20472;-77
2022/11/02 00:24:50;;;;;;;3.27;2.80;;;;;;;;;;5069754;28;20449;-75
2022/11/02 00:27:18;;;;;;;6.57;3.60;;;;;;;;;;5069798;28;20448;-77
2022/11/02 00:29:45;;;;;;;6.03;3.60;;;;;;;;;;5070218;28;20468;-75
2022/11/02 00:32:13;;;;;;;5.80;3.20;;;;;;;;;;5070190;28;20457;-76
2022/11/02 00:34:40;;;;;;;6.83;3.60;;;;;;;;;;5069489;28;20440;-76
2022/11/02 00:37:07;;;;;;;5.00;3.60;;;;;;;;;;5070264;28;20444;-76
2022/11/02 00:39:34;;;;;;;7.50;3.63;;;;;;;;;;5070354;28;20825;-76
2022/11/02 00:42:01;;;;;;;5.23;3.87;;;;;;;;;;5069630;28;20479;-76
2022/11/02 00:44:28;;;;;;;4.00;3.60;;;;;;;;;;5069513;28;20444;-77
2022/11/02 00:46:55;;;;;;;5.73;3.03;;;;;;;;;;5069939;28;20484;-76
2022/11/02 00:49:24;;;;;;;5.20;3.37;;;;;;;;;;5070210;28;20463;-76
2022/11/02 00:51:51;;;;;;;3.93;3.30;;;;;;;;;;5070039;28;20504;-77
2022/11/02 00:54:18;;;;;;;6.43;3.30;;;;;;;;;;5069183;28;20441;-76
2022/11/02 00:56:45;;;;;;;5.57;3.30;;;;;;;;;;5070219;28;20451;-77
2022/11/02 00:59:12;;;;;;;5.33;3.90;;;;;;;;;;5070093;28;20444;-76
2022/11/02 01:01:39;;;;;;;7.50;3.33;;;;;;;;;;5070465;28;20469;-77
2022/11/02 01:04:06;;;;;;;4.50;3.13;;;;;;;;;;5069564;28;20441;-77
2022/11/02 01:06:34;;;;;;;4.37;3.37;;;;;;;;;;5070482;28;20437;-77
2022/11/02 01:09:01;;;;;;;5.27;3.10;;;;;;;;;;5070252;28;20444;-77
2022/11/02 01:11:28;;;;;;;4.70;2.90;;;;;;;;;;5070043;28;20499;-77
2022/11/02 01:13:55;;;;;;;5.30;2.80;;;;;;;;;;5051388;28;20458;-77
2022/11/02 01:16:22;;;;;;;4.43;2.90;;;;;;;;;;5049876;28;20446;-77
2022/11/02 01:18:51;;;;;;;3.73;2.90;;;;;;;;;;5049725;28;20453;-77
2022/11/02 01:21:18;;;;;;;5.77;3.10;;;;;;;;;;5049392;28;20449;-78
2022/11/02 01:23:47;;;;;;;5.07;2.83;;;;;;;;;;5049050;28;20441;-77
2022/11/02 01:26:14;;;;;;;4.97;2.30;;;;;;;;;;5049557;28;20449;-77
2022/11/02 01:28:41;;;;;;;3.80;2.63;;;;;;;;;;5052954;28;20454;-77
2022/11/02 01:31:09;;;;;;;9.00;3.30;;;;;;;;;;5053481;28;20503;-77
2022/11/02 01:33:36;;;;;;;4.17;2.67;;;;;;;;;;5052950;28;20973;-77
2022/11/02 01:36:04;;;;;;;4.70;3.00;;;;;;;;;;5053157;28;20545;-77
2022/11/02 01:38:31;;;;;;;8.00;3.10;;;;;;;;;;5053463;28;20456;-76
2022/11/02 01:41:00;;;;;;;3.00;2.40;;;;;;;;;;5053762;28;20472;-77
2022/11/02 01:43:27;;;;;;;5.43;2.90;;;;;;;;;;5053029;28;21050;-77
2022/11/02 01:45:56;;;;;;;4.60;2.83;;;;;;;;;;5053620;28;20442;-77
2022/11/02 01:48:29;;;;;;;5.40;2.80;;;;;;;;;;5052871;28;20450;-78
2022/11/02 01:50:56;;;;;;;7.20;3.13;;;;;;;;;;5052911;28;20485;-76
2022/11/02 01:53:23;;;;;;;3.27;2.73;;;;;;;;;;5051975;28;20996;-77
2022/11/02 01:55:51;;;;;;;3.13;2.90;;;;;;;;;;5052711;28;20810;-77
2022/11/02 01:58:20;;;;;;;7.70;3.20;;;;;;;;;;5052871;28;20452;-78
2022/11/02 02:00:47;;;;;;;6.30;2.90;;;;;;;;;;5052983;28;20532;-78
2022/11/02 02:03:17;;;;;;;7.13;3.20;;;;;;;;;;5051758;28;20504;-77
2022/11/02 02:05:45;;;;;;;3.67;2.83;;;;;;;;;;5052565;28;20919;-77
2022/11/02 02:08:13;;;;;;;4.73;2.57;;;;;;;;;;5052939;28;20448;-77
2022/11/02 02:10:40;;;;;;;5.83;3.40;;;;;;;;;;5052668;28;20477;-77
2022/11/02 02:13:07;;;;;;;2.87;2.67;;;;;;;;;;5063182;28;20468;-77
2022/11/02 02:15:40;;;;;;;3.53;3.20;;;;;;;;;;5072844;28;20453;-77
2022/11/02 02:18:10;;;;;;;6.50;2.53;;;;;;;;;;5072489;28;20449;-77
2022/11/02 02:20:42;;;;;;;3.63;3.33;;;;;;;;;;5072535;28;20444;-77
2022/11/02 02:23:15;;;;;;;3.83;3.10;;;;;;;;;;5071590;28;20465;-77
2022/11/02 02:25:57;;;;;;;4.43;2.97;;;;;;;;;;5072474;28;20441;-77
2022/11/02 02:28:31;;;;;;;2.50;2.27;;;;;;;;;;5070348;28;20448;-78
2022/11/02 02:31:01;;;;;;;4.37;3.20;;;;;;;;;;5072811;28;21030;-77
2022/11/02 02:33:30;;;;;;;5.77;3.40;;;;;;;;;;5071526;28;20480;-78
2022/11/02 02:35:59;;;;;;;5.00;2.77;;;;;;;;;;5072479;28;20444;-77
2022/11/02 02:38:29;;;;;;;3.63;3.00;;;;;;;;;;5072067;28;20498;-76
2022/11/02 02:40:59;;;;;;;3.60;3.20;;;;;;;;;;5072470;28;20436;-78
2022/11/02 02:43:30;;;;;;;5.70;2.80;;;;;;;;;;5072078;28;20460;-76
2022/11/02 02:46:01;;;;;;;3.53;2.63;;;;;;;;;;5072405;28;20936;-77
2022/11/02 02:48:30;;;;;;;4.03;2.83;;;;;;;;;;5072076;28;20459;-79
2022/11/02 02:51:00;;;;;;;5.37;2.80;;;;;;;;;;5071848;28;20495;-78
2022/11/02 02:53:29;;;;;;;3.27;2.97;;;;;;;;;;5073894;28;20477;-77
2022/11/02 02:55:58;;;;;;;11.07;3.33;;;;;;;;;;5075092;28;20567;-77
2022/11/02 02:58:27;;;;;;;10.00;3.17;;;;;;;;;;5074474;28;20455;-77
2022/11/02 03:00:55;;;;;;;3.93;3.43;;;;;;;;;;5073260;28;20444;-77
2022/11/02 03:03:24;;;;;;;5.10;2.83;;;;;;;;;;5072476;28;20490;-78
2022/11/02 03:05:59;;;;;;;7.23;3.23;;;;;;;;;;5071910;28;20437;-78
2022/11/02 03:08:26;;;;;;;5.00;3.00;;;;;;;;;;5071658;28;20447;-77
2022/11/02 03:10:55;;;;;;;3.73;2.80;;;;;;;;;;5071391;28;20991;-77
2022/11/02 03:13:33;;;;;;;4.07;2.67;;;;;;;;;;5057433;28;20862;-77
2022/11/02 03:16:03;;;;;;;4.40;2.90;;;;;;;;;;5051389;28;20464;-78
2022/11/02 03:18:36;;;;;;;5.53;2.97;;;;;;;;;;5051728;28;20500;-77
2022/11/02 03:21:07;;;;;;;6.00;3.20;;;;;;;;;;5051704;28;20460;-77
2022/11/02 03:23:37;;;;;;;4.23;3.43;;;;;;;;;;5050727;28;21008;-77
2022/11/02 03:26:07;;;;;;;4.40;2.80;;;;;;;;;;5051667;28;20444;-77
2022/11/02 03:28:41;;;;;;;2.80;2.60;;;;;;;;;;5051292;28;20445;-78
2022/11/02 03:31:12;;;;;;;5.20;3.10;;;;;;;;;;5050960;28;21009;-77
2022/11/02 03:33:43;;;;;;;4.77;3.50;;;;;;;;;;5050288;28;20481;-77
2022/11/02 03:36:13;;;;;;;6.20;2.80;;;;;;;;;;5051055;28;20450;-77
2022/11/02 03:38:44;;;;;;;4.10;2.63;;;;;;;;;;5051434;28;20461;-78
2022/11/02 03:41:12;;;;;;;2.73;2.50;;;;;;;;;;5051338;28;20456;-76
2022/11/02 03:43:41;;;;;;;5.70;2.73;;;;;;;;;;5050830;28;20475;-77
2022/11/02 03:46:11;;;;;;;4.53;2.63;;;;;;;;;;5051162;28;20529;-78
2022/11/02 03:48:41;;;;;;;3.13;2.53;;;;;;;;;;5051345;28;20449;-77
2022/11/02 03:51:11;;;;;;;3.33;2.83;;;;;;;;;;5050226;28;20487;-78
2022/11/02 03:53:42;;;;;;;3.90;2.80;;;;;;;;;;5050194;28;20921;-78
2022/11/02 03:56:11;;;;;;;4.83;2.10;;;;;;;;;;5051090;28;20886;-77
2022/11/02 03:58:38;;;;;;;3.77;2.57;;;;;;;;;;5051032;28;20454;-77
2022/11/02 04:01:07;;;;;;;3.97;2.60;;;;;;;;;;5050624;28;20445;-77
2022/11/02 04:03:38;;;;;;;9.30;2.50;;;;;;;;;;5050004;28;20539;-78
2022/11/02 04:06:05;;;;;;;3.90;2.90;;;;;;;;;;5050358;28;20457;-77
2022/11/02 04:08:34;;;;;;;3.80;2.80;;;;;;;;;;5050546;28;20517;-77
2022/11/02 04:16:31;;;;;;;2.87;2.60;;;;;;;;;;5069963;28;20793;-77
2022/11/02 04:25:14;;;;;;;6.00;2.80;;;;;;;;;;5074815;28;20536;-76
2022/11/02 04:27:16;;;;;;;4.60;2.40;;;;;;;;;;5069941;28;20459;-77
2022/11/02 04:29:43;;;;;;;2.60;2.40;;;;;;;;;;5070272;28;20452;-77
2022/11/02 04:32:11;;;;;;;4.50;2.83;;;;;;;;;;5070074;28;20860;-77
2022/11/02 04:34:38;;;;;;;4.80;2.63;;;;;;;;;;5069724;28;20452;-77
2022/11/02 04:38:39;;;;;;;2.93;2.13;;;;;;;;;;5070014;28;20449;-77
2022/11/02 04:39:51;;;;;;;5.47;2.60;;;;;;;;;;5074629;28;20444;-77
2022/11/02 04:42:18;;;;;;;2.80;2.17;;;;;;;;;;5075696;28;20540;-76
2022/11/02 04:44:45;;;;;;;6.47;2.30;;;;;;;;;;5071441;28;20451;-76
2022/11/02 04:47:12;;;;;;;2.10;2.00;;;;;;;;;;5071232;28;20453;-76
2022/11/02 04:49:40;;;;;;;3.33;2.00;;;;;;;;;;5071258;28;20448;-77
2022/11/02 04:52:08;;;;;;;2.83;2.30;;;;;;;;;;5069975;28;20489;-78
2022/11/02 04:54:35;;;;;;;4.40;2.80;;;;;;;;;;5069218;28;20975;-77
2022/11/02 04:57:02;;;;;;;3.27;2.90;;;;;;;;;;5069700;28;20440;-78
2022/11/02 04:59:29;;;;;;;2.87;2.50;;;;;;;;;;5069857;28;20715;-77
2022/11/02 05:01:56;;;;;;;2.53;2.10;;;;;;;;;;5071809;28;20456;-78
2022/11/02 05:04:23;;;;;;;4.13;2.33;;;;;;;;;;5073376;28;20459;-76
2022/11/02 05:06:52;;;;;;;4.07;2.27;;;;;;;;;;5074270;28;20455;-76
2022/11/02 05:09:19;;;;;;;3.57;2.53;;;;;;;;;;5073854;28;20444;-76
2022/11/02 05:11:46;;;;;;;2.50;2.07;;;;;;;;;;5073724;28;20476;-77
2022/11/02 05:14:13;;;;;;;4.10;2.57;;;;;;;;;;5053153;28;20464;-77
2022/11/02 05:16:40;;;;;;;4.30;2.60;;;;;;;;;;5053469;28;20449;-78
2022/11/02 05:19:07;;;;;;;4.17;2.03;;;;;;;;;;5053169;28;20452;-77
2022/11/02 05:21:34;;;;;;;5.17;2.47;;;;;;;;;;5053566;28;20444;-77
2022/11/02 05:24:03;;;;;;;5.83;2.97;;;;;;;;;;5052865;28;20453;-78
2022/11/02 05:26:30;;;;;;;5.30;3.37;;;;;;;;;;5053443;28;20949;-77
2022/11/02 05:28:57;;;;;;;4.40;2.10;;;;;;;;;;5057135;28;20475;-77
2022/11/02 05:31:24;;;;;;;5.23;2.47;;;;;;;;;;5062234;28;20469;-77
2022/11/02 05:33:51;;;;;;;4.83;1.80;;;;;;;;;;5068448;28;20455;-78
2022/11/02 05:36:18;;;;;;;6.80;2.43;;;;;;;;;;5073913;28;20442;-76
2022/11/02 05:38:45;;;;;;;3.97;2.27;;;;;;;;;;5074253;28;20450;-77
2022/11/02 05:41:13;;;;;;;5.27;3.10;;;;;;;;;;5073978;28;20445;-76
2022/11/02 05:43:40;;;;;;;5.17;2.47;;;;;;;;;;5072914;28;20468;-77
2022/11/02 05:46:08;;;;;;;4.57;2.73;;;;;;;;;;5063380;28;20445;-76
2022/11/02 05:48:35;;;;;;;7.83;2.73;;;;;;;;;;5054875;28;20453;-77
2022/11/02 05:51:02;;;;;;;5.00;2.23;;;;;;;;;;5054698;28;20488;-78
2022/11/02 05:53:31;;;;;;;5.57;2.90;;;;;;;;;;5053794;28;20461;-78
2022/11/02 05:55:58;;;;;;;5.70;2.73;;;;;;;;;;5054514;28;20461;-78
2022/11/02 05:58:27;;;;;;;2.67;2.33;;;;;;;;;;5055018;28;20441;-78
2022/11/02 06:00:54;;;;;;;3.50;2.40;;;;;;;;;;5053575;28;20461;-78
2022/11/02 06:03:22;;;;;;;9.00;2.40;;;;;;;;;;5053493;28;20457;-77
2022/11/02 06:05:49;;;;;;;7.50;2.63;;;;;;;;;;5058610;28;20541;-76
2022/11/02 06:08:16;;;;;;;4.60;2.90;;;;;;;;;;5061522;28;20531;-78
2022/11/02 06:10:43;;;;;;;3.70;2.67;;;;;;;;;;5071960;28;20794;-78
2022/11/02 06:13:10;;;;;;;3.90;2.40;;;;;;;;;;5071438;28;20964;-78
2022/11/02 06:15:39;;;;;;;6.43;2.40;;;;;;;;;;5073487;28;20444;-79
2022/11/02 06:18:06;;;;;;;6.10;3.20;;;;;;;;;;5053289;28;20838;-79
2022/11/02 06:20:33;;;;;;;3.07;2.10;;;;;;;;;;5069128;28;20450;-77
2022/11/02 06:23:00;;;;;;;4.63;2.60;;;;;;;;;;5072286;28;20970;-78
2022/11/02 06:25:28;;;;;;;3.93;2.30;;;;;;;;;;5073361;28;20417;-79
2022/11/02 06:27:56;;;;;;;4.50;2.67;;;;;;;;;;5073171;28;20457;-78
2022/11/02 06:30:23;;;;;;;4.50;3.30;;;;;;;;;;5073006;28;20452;-78
2022/11/02 06:32:52;;;;;;;5.40;3.23;;;;;;;;;;5072299;28;20484;-77
2022/11/02 06:35:21;;;;;;;4.90;2.60;;;;;;;;;;5078264;28;20448;-77
2022/11/02 06:37:48;;;;;;;2.40;2.13;;;;;;;;;;5076431;28;20511;-77
2022/11/02 06:40:16;;;;;;;5.53;2.70;;;;;;;;;;5071906;28;20454;-77
2022/11/02 06:42:43;;;;;;;3.93;2.20;;;;;;;;;;5061198;28;20458;-77
2022/11/02 06:45:10;;;;;;;4.50;2.47;;;;;;;;;;5073141;28;20447;-78
2022/11/02 06:47:38;;;;;;;3.63;2.53;;;;;;;;;;5056527;28;20457;-78
2022/11/02 06:50:07;;;;;;;7.10;2.20;;;;;;;;;;5064976;28;20441;-78
2022/11/02 06:52:35;;;;;;;4.23;2.40;;;;;;;;;;5071489;28;21003;-77
2022/11/02 06:55:02;;;;;;;4.40;2.70;;;;;;;;;;5071981;28;20482;-77
2022/11/02 06:57:29;;;;;;;5.17;2.43;;;;;;;;;;5072545;28;20444;-76
2022/11/02 07:00:02;;;;;;;5.20;2.60;;;;;;;;;;5072822;28;20451;-78
2022/11/02 07:02:29;;;;;;;5.20;3.00;;;;;;;;;;5072304;28;20979;-77
2022/11/02 07:04:56;;;;;;;5.07;2.77;;;;;;;;;;5072696;28;20902;-78
2022/11/02 07:07:25;;;;;;;3.40;2.50;;;;;;;;;;5073453;28;20459;-78
2022/11/02 07:09:52;;;;;;;4.37;2.63;;;;;;;;;;5073728;28;20448;-77
2022/11/02 07:12:19;;;;;;;3.70;2.50;;;;;;;;;;5078641;28;20508;-78
2022/11/02 07:14:46;;;;;;;5.80;2.13;;;;;;;;;;5065670;28;20456;-77
2022/11/02 07:17:13;;;;;;;6.07;2.23;;;;;;;;;;5066886;28;20442;-76
2022/11/02 07:19:40;;;;;;;4.30;2.10;;;;;;;;;;5068649;28;20496;-77
2022/11/02 07:22:07;;;;;;;5.10;2.23;;;;;;;;;;5056550;28;20462;-78
2022/11/02 07:24:36;;;;;;;5.57;2.53;;;;;;;;;;5050476;28;20461;-77
2022/11/02 07:27:03;;;;;;;8.07;3.43;;;;;;;;;;5052095;28;20452;-77
2022/11/02 07:29:30;;;;;;;7.73;2.60;;;;;;;;;;5052128;28;20448;-78
2022/11/02 07:31:57;;;;;;;4.33;2.27;;;;;;;;;;5052000;28;20477;-77
2022/11/02 07:34:24;;;;;;;5.60;2.90;;;;;;;;;;5050789;28;20458;-78
2022/11/02 07:36:51;;;;;;;2.47;2.03;;;;;;;;;;5052241;28;20441;-78
2022/11/02 07:39:18;;;;;;;4.67;2.40;;;;;;;;;;5052113;28;20454;-77
2022/11/02 07:41:47;;;;;;;5.53;2.40;;;;;;;;;;5051695;28;20462;-78
2022/11/02 07:44:14;;;;;;;5.87;2.40;;;;;;;;;;5051236;28;20450;-78
2022/11/02 07:46:41;;;;;;;6.83;2.03;;;;;;;;;;5051852;28;20498;-78
2022/11/02 07:49:08;;;;;;;4.90;1.93;;;;;;;;;;5052046;28;20454;-77
2022/11/02 07:51:35;;;;;;;6.53;2.30;;;;;;;;;;5052226;28;20489;-78
2022/11/02 07:54:02;;;;;;;7.70;2.63;;;;;;;;;;5051687;28;20481;-78
2022/11/02 07:56:29;;;;;;;5.90;2.37;;;;;;;;;;5051718;28;20453;-77
2022/11/02 07:58:58;;;;;;;7.07;2.60;;;;;;;;;;5052071;28;20442;-79
2022/11/02 08:01:25;;;;;;;7.40;2.60;;;;;;;;;;5052064;28;20469;-78
2022/11/02 08:03:53;;;;;;;4.07;2.40;;;;;;;;;;5051052;28;20449;-78
2022/11/02 08:06:20;;;;;;;6.17;2.27;;;;;;;;;;5063688;28;20810;-77
2022/11/02 08:08:47;;;;;;;5.40;2.30;;;;;;;;;;5070283;28;20441;-78
2022/11/02 08:11:14;;;;;;;5.67;3.37;;;;;;;;;;5070434;28;20448;-78
2022/11/02 08:13:41;;;;;;;3.80;2.87;;;;;;;;;;5069808;28;20479;-78
2022/11/02 08:16:10;;;;;;;7.57;4.20;;;;;;;;;;5070446;28;20448;-79
2022/11/02 08:18:37;;;;;;;7.30;3.60;;;;;;;;;;5059243;28;20440;-78
2022/11/02 08:21:04;;;;;;;7.63;4.43;;;;;;;;;;5071493;28;20452;-78
2022/11/02 08:23:31;;;;;;;8.83;3.77;;;;;;;;;;5070785;28;20468;-78
2022/11/02 08:25:59;;;;;;;4.80;3.17;;;;;;;;;;5071077;28;20441;-77
2022/11/02 08:28:27;;;;;;;7.00;2.60;;;;;;;;;;5071525;28;20609;-78
2022/11/02 08:30:55;;;;;;;9.03;2.87;;;;;;;;;;5070969;28;20936;-78
2022/11/02 08:33:23;;;;;;;6.97;3.00;;;;;;;;;;5070172;28;20554;-78
2022/11/02 08:35:51;;;;;;;2.77;1.90;;;;;;;;;;5070299;28;20908;-78
2022/11/02 08:38:21;;;;;;;3.30;1.80;;;;;;;;;;5072360;28;20539;-78
2022/11/02 08:40:48;;;;;;;7.13;2.10;;;;;;;;;;5065670;28;20486;-78
2022/11/02 08:43:15;;;;;;;4.33;2.50;;;;;;;;;;5068829;28;20472;-77
2022/11/02 08:45:43;;;;;;;5.50;2.60;;;;;;;;;;5065952;28;20440;-79
2022/11/02 08:48:11;;;;;;;4.73;2.37;;;;;;;;;;5070659;28;20437;-78
2022/11/02 08:50:39;;;;;;;5.13;2.53;;;;;;;;;;5070656;28;20448;-79
2022/11/02 08:53:09;;;;;;;5.50;2.27;;;;;;;;;;5069327;28;20476;-78
2022/11/02 08:55:36;;;;;;;3.33;2.20;;;;;;;;;;5069679;28;20445;-77
2022/11/02 08:58:03;;;;;;;4.37;2.23;;;;;;;;;;5069920;28;20477;-77
2022/11/02 09:00:31;;;;;;;6.87;1.93;;;;;;;;;;5069640;28;20444;-76
2022/11/02 09:02:59;;;;;;;5.17;2.60;;;;;;;;;;5069126;28;20992;-77
2022/11/02 09:05:26;;;;;;;6.27;1.70;;;;;;;;;;5070309;28;21011;-77
2022/11/02 09:07:57;;;;;;;4.50;1.90;;;;;;;;;;5070691;28;20445;-77
2022/11/02 09:10:24;;;;;;;3.30;1.57;;;;;;;;;;5069607;28;20459;-76
2022/11/02 09:12:51;;;;;;;4.30;1.80;;;;;;;;;;5069570;28;20476;-76
2022/11/02 09:15:19;;;;;;;7.40;2.00;;;;;;;;;;5070111;28;20451;-77
2022/11/02 09:17:47;;;;;;;4.77;1.97;;;;;;;;;;5070105;28;20443;-77
2022/11/02 09:20:14;;;;;;;7.57;2.70;;;;;;;;;;5069769;28;20468;-77
2022/11/02 09:22:41;;;;;;;8.30;2.50;;;;;;;;;;5068602;28;20996;-76
2022/11/02 09:25:10;;;;;;;4.23;2.20;;;;;;;;;;5069511;28;20788;-78
2022/11/02 09:27:37;;;;;;;6.23;2.63;;;;;;;;;;5069896;28;20456;-76
2022/11/02 09:30:05;;;;;;;5.77;2.90;;;;;;;;;;5069540;28;20441;-78
2022/11/02 09:32:32;;;;;;;6.00;2.03;;;;;;;;;;5068413;28;20510;-77
2022/11/02 09:35:00;;;;;;;5.10;2.10;;;;;;;;;;5069484;28;20539;-77
2022/11/02 09:37:27;;;;;;;5.37;2.73;;;;;;;;;;5069566;28;20471;-77
2022/11/02 09:39:54;;;;;;;4.50;1.60;;;;;;;;;;5069676;28;20465;-77
2022/11/02 09:42:24;;;;;;;5.77;2.03;;;;;;;;;;5069256;28;20468;-77
2022/11/02 09:44:54;;;;;;;4.47;1.70;;;;;;;;;;5069514;28;20440;-77
2022/11/02 09:47:22;;;;;;;4.00;2.03;;;;;;;;;;5070565;28;20452;-77
2022/11/02 09:49:49;;;;;;;3.03;2.00;;;;;;;;;;5073783;28;20440;-76
2022/11/02 09:52:20;;;;;;;3.73;1.73;;;;;;;;;;5074121;28;20854;-77
2022/11/02 09:54:49;;;;;;;3.53;1.70;;;;;;;;;;5073473;28;20467;-77
2022/11/02 09:57:17;;;;;;;5.83;1.80;;;;;;;;;;5074698;28;20448;-76
2022/11/02 09:59:46;;;;;;;4.03;1.60;;;;;;;;;;5073336;28;20822;-77
2022/11/02 10:02:18;;;;;;;9.27;3.70;;;;;;;;;;5072743;28;20456;-76
2022/11/02 10:04:52;;;;;;;5.20;2.03;;;;;;;;;;5072382;28;20452;-77
2022/11/02 10:07:25;;;;;;;4.17;1.70;;;;;;;;;;5072573;28;20437;-76
2022/11/02 10:09:54;;;;;;;3.10;1.60;;;;;;;;;;5072404;28;20463;-77
2022/11/02 10:12:24;;;;;;;8.20;2.33;;;;;;;;;;5067346;28;20493;-76
2022/11/02 10:14:56;;;;;;;6.10;1.90;;;;;;;;;;5052052;28;20442;-76
2022/11/02 10:17:26;;;;;;;5.90;2.00;;;;;;;;;;5052881;28;20631;-76
2022/11/02 10:19:55;;;;;;;8.63;2.60;;;;;;;;;;5052296;28;21071;-77
2022/11/02 10:22:25;;;;;;;8.37;2.03;;;;;;;;;;5052477;28;20461;-77
2022/11/02 10:24:55;;;;;;;3.37;1.60;;;;;;;;;;5051888;28;20468;-77
2022/11/02 10:27:25;;;;;;;5.60;2.10;;;;;;;;;;5052329;28;20532;-76
2022/11/02 10:29:55;;;;;;;7.37;2.00;;;;;;;;;;5052446;28;20828;-76
2022/11/02 10:32:24;;;;;;;6.03;1.80;;;;;;;;;;5051867;28;20481;-77
2022/11/02 10:34:51;;;;;;;4.80;2.40;;;;;;;;;;5051707;28;20441;-76
2022/11/02 10:37:24;;;;;;;4.27;1.67;;;;;;;;;;5052615;28;20925;-76
2022/11/02 10:39:56;;;;;;;5.00;1.80;;;;;;;;;;5052111;28;20460;-76
2022/11/02 10:42:32;;;;;;;2.77;1.57;;;;;;;;;;5052179;28;20465;-77
2022/11/02 10:45:05;;;;;;;4.23;1.80;;;;;;;;;;5052237;28;20441;-76
2022/11/02 10:47:38;;;;;;;2.53;1.60;;;;;;;;;;5051908;28;20445;-76
2022/11/02 10:50:14;;;;;;;5.23;2.13;;;;;;;;;;5051916;28;20461;-77
2022/11/02 10:52:42;;;;;;;5.70;1.57;;;;;;;;;;5051038;28;20490;-78
2022/11/02 10:55:14;;;;;;;5.17;2.13;;;;;;;;;;5051913;28;20464;-77
2022/11/02 10:57:41;;;;;;;2.53;1.47;;;;;;;;;;5051970;28;20453;-77
2022/11/02 11:00:24;;;;;;;2.97;1.67;;;;;;;;;;5051569;28;20445;-75
2022/11/02 11:03:04;;;;;;;3.80;1.70;;;;;;;;;;5050503;28;21098;-77
2022/11/02 11:05:32;;;;;;;5.73;2.13;;;;;;;;;;5053880;28;20441;-75
2022/11/02 11:07:59;;;;;;;3.90;1.47;;;;;;;;;;5051958;28;20450;-78
2022/11/02 11:10:26;;;;;;;3.53;1.80;;;;;;;;;;5051991;28;20450;-77
2022/11/02 11:12:55;;;;;;;4.30;2.03;;;;;;;;;;5060594;28;20858;-77
2022/11/02 11:15:22;;;;;;;6.67;2.20;;;;;;;;;;5071172;28;20452;-77
2022/11/02 11:17:50;;;;;;;4.57;2.23;;;;;;;;;;5071503;28;20441;-77
2022/11/02 11:20:33;;;;;;;5.47;2.03;;;;;;;;;;5071311;28;20452;-77
2022/11/02 11:23:10;;;;;;;5.90;2.20;;;;;;;;;;5070875;28;20488;-78
2022/11/02 11:25:37;;;;;;;7.13;2.20;;;;;;;;;;5072139;28;21014;-79
2022/11/02 11:28:21;;;;;;;5.47;2.10;;;;;;;;;;5072288;28;20445;-77
2022/11/02 11:30:51;;;;;;;4.97;2.03;;;;;;;;;;5071910;28;20444;-76
2022/11/02 11:33:20;;;;;;;3.70;1.87;;;;;;;;;;5069385;28;21044;-77
2022/11/02 11:35:50;;;;;;;7.27;2.07;;;;;;;;;;5071624;28;20449;-77
2022/11/02 11:38:18;;;;;;;5.23;2.03;;;;;;;;;;5071916;28;20535;-77
2022/11/02 11:40:47;;;;;;;5.70;4.03;;;;;;;;;;5071006;28;20447;-77
2022/11/02 11:43:16;;;;;;;4.10;2.03;;;;;;;;;;5070654;28;20555;-77
2022/11/02 11:45:54;;;;;;;3.90;1.83;;;;;;;;;;5072317;28;20448;-77
2022/11/02 11:48:24;;;;;;;7.90;1.60;;;;;;;;;;5070716;28;20467;-76
2022/11/02 11:50:53;;;;;;;6.07;1.90;;;;;;;;;;5070872;28;20436;-77
2022/11/02 11:53:22;;;;;;;6.37;1.77;;;;;;;;;;5070649;28;20913;-77
2022/11/02 11:55:49;;;;;;;5.23;2.17;;;;;;;;;;5070454;28;21018;-76
2022/11/02 11:58:19;;;;;;;4.90;2.40;;;;;;;;;;5070338;28;20448;-77
2022/11/02 12:00:46;;;;;;;6.03;2.00;;;;;;;;;;5070446;28;20444;-76
2022/11/02 12:03:15;;;;;;;3.47;1.80;;;;;;;;;;5069598;28;20991;-76
2022/11/02 12:05:55;;;;;;;3.90;1.80;;;;;;;;;;5071237;28;20453;-76
2022/11/02 12:08:37;;;;;;;4.50;1.90;;;;;;;;;;5071287;28;20444;-77
2022/11/02 12:11:11;;;;;;;4.20;1.53;;;;;;;;;;5075020;28;20452;-75
2022/11/02 12:13:49;;;;;;;2.67;2.10;;;;;;;;;;5081944;28;20477;-77
2022/11/02 12:16:21;;;;;;;3.57;2.00;;;;;;;;;;5083251;28;20447;-75
2022/11/02 12:18:52;;;;;;;8.20;1.80;;;;;;;;;;5086021;28;20447;-77
2022/11/02 12:21:23;;;;;;;3.20;1.80;;;;;;;;;;5070803;28;20934;-76
2022/11/02 12:24:01;;;;;;;3.93;1.40;;;;;;;;;;5070047;28;20483;-77
2022/11/02 12:26:36;;;;;;;5.90;1.70;;;;;;;;;;5070554;28;20817;-78
2022/11/02 12:29:07;;;;;;;5.60;2.00;;;;;;;;;;5070501;28;20502;-76
2022/11/02 12:31:37;;;;;;;3.03;1.67;;;;;;;;;;5070425;28;20444;-77
2022/11/02 12:34:19;;;;;;;4.73;2.03;;;;;;;;;;5069609;28;21002;-77
2022/11/02 12:36:50;;;;;;;6.77;2.10;;;;;;;;;;5058076;28;20448;-78
2022/11/02 12:39:23;;;;;;;7.87;2.47;;;;;;;;;;5070576;28;20967;-78
2022/11/02 12:41:56;;;;;;;4.87;1.47;;;;;;;;;;5070351;28;20453;-77
2022/11/02 12:44:34;;;;;;;7.20;2.57;;;;;;;;;;5069924;28;20932;-76
2022/11/02 12:47:05;;;;;;;4.70;1.97;;;;;;;;;;5070729;28;20424;-77
2022/11/02 12:49:36;;;;;;;5.10;1.70;;;;;;;;;;5071149;28;20790;-77
2022/11/02 12:52:08;;;;;;;4.83;1.50;;;;;;;;;;5070456;28;20463;-75
2022/11/02 12:54:37;;;;;;;3.10;1.60;;;;;;;;;;5068594;28;20484;-77
2022/11/02 12:57:06;;;;;;;5.17;1.70;;;;;;;;;;5056739;28;20456;-77
2022/11/02 12:59:34;;;;;;;11.10;2.40;;;;;;;;;;5061275;28;20449;-76
2022/11/02 13:02:04;;;;;;;5.63;1.93;;;;;;;;;;5053597;28;20983;-77
2022/11/02 13:04:33;;;;;;;7.73;2.00;;;;;;;;;;5066611;28;20433;-77
2022/11/02 13:07:02;;;;;;;5.10;1.57;;;;;;;;;;5071060;28;20440;-76
2022/11/02 13:09:35;;;;;;;3.97;1.70;;;;;;;;;;5070991;28;20445;-77
2022/11/02 13:12:04;;;;;;;4.37;1.87;;;;;;;;;;5070118;28;20469;-77
2022/11/02 13:14:39;;;;;;;4.13;1.80;;;;;;;;;;5070673;28;20520;-77
2022/11/02 13:17:09;;;;;;;6.10;2.00;;;;;;;;;;5073447;28;20448;-77
2022/11/02 13:19:39;;;;;;;3.00;1.30;;;;;;;;;;5072855;28;20867;-77
2022/11/02 13:22:09;;;;;;;4.10;1.83;;;;;;;;;;5071318;28;20551;-76
2022/11/02 13:24:39;;;;;;;4.50;1.73;;;;;;;;;;5073998;28;21210;-76
2022/11/02 13:27:07;;;;;;;3.13;2.03;;;;;;;;;;5075739;28;20444;-76
2022/11/02 13:29:38;;;;;;;6.87;2.30;;;;;;;;;;5074964;28;20828;-77
2022/11/02 13:32:09;;;;;;;3.90;1.90;;;;;;;;;;5073752;28;20471;-77
2022/11/02 13:34:39;;;;;;;3.40;1.60;;;;;;;;;;5063871;28;20999;-77
2022/11/02 13:37:08;;;;;;;7.67;1.90;;;;;;;;;;5068793;28;20444;-77
2022/11/02 13:39:37;;;;;;;3.00;1.43;;;;;;;;;;5073585;28;21266;-77
2022/11/02 13:42:18;;;;;;;4.10;2.07;;;;;;;;;;5075091;28;20537;-77
2022/11/02 13:44:56;;;;;;;6.33;1.87;;;;;;;;;;5072999;28;20948;-76
2022/11/02 13:47:38;;;;;;;7.30;2.70;;;;;;;;;;5073615;28;20455;-77
2022/11/02 13:50:08;;;;;;;3.10;1.73;;;;;;;;;;5072293;28;20845;-76
2022/11/02 13:52:37;;;;;;;7.83;2.40;;;;;;;;;;5073912;28;20471;-77
2022/11/02 13:55:05;;;;;;;7.13;2.53;;;;;;;;;;5073654;28;20508;-78
2022/11/02 14:00:29;;;;;;;5.47;2.10;;;;;;;;;;5072294;28;20440;-77
2022/11/02 14:02:59;;;;;;;5.10;2.40;;;;;;;;;;5073101;28;20460;-79
2022/11/02 14:05:28;;;;;;;2.93;1.80;;;;;;;;;;5073289;28;20448;-76
2022/11/02 14:07:55;;;;;;;6.67;2.23;;;;;;;;;;5073634;28;20437;-77
2022/11/02 14:10:22;;;;;;;6.30;1.90;;;;;;;;;;5072941;28;20452;-77
2022/11/02 14:12:49;;;;;;;5.10;2.33;;;;;;;;;;5063727;28;20462;-78
2022/11/02 14:15:46;;;;;;;4.20;1.80;;;;;;;;;;5053229;28;20446;-77
2022/11/02 14:18:29;;;;;;;5.80;2.00;;;;;;;;;;5053227;28;20441;-77
2022/11/02 14:20:56;;;;;;;5.47;2.13;;;;;;;;;;5052587;28;20526;-76
2022/11/02 14:23:37;;;;;;;3.50;2.50;;;;;;;;;;5052225;28;20525;-76
2022/11/02 14:26:04;;;;;;;5.40;2.00;;;;;;;;;;5054245;28;20520;-77
2022/11/02 14:28:32;;;;;;;5.20;2.00;;;;;;;;;;5053232;28;20441;-78
2022/11/02 14:31:02;;;;;;;4.53;2.10;;;;;;;;;;5052997;28;20442;-76
2022/11/02 14:33:42;;;;;;;5.83;1.80;;;;;;;;;;5051750;28;20490;-77
2022/11/02 14:36:11;;;;;;;9.73;2.03;;;;;;;;;;5052816;28;20448;-76
2022/11/02 14:38:46;;;;;;;5.87;1.70;;;;;;;;;;5052495;28;20461;-76
2022/11/02 14:41:19;;;;;;;5.53;2.53;;;;;;;;;;5052149;28;20459;-77
2022/11/02 14:43:58;;;;;;;3.53;2.33;;;;;;;;;;5051786;28;20458;-77
2022/11/02 14:46:33;;;;;;;12.33;1.83;;;;;;;;;;5052909;28;20468;-78
2022/11/02 14:49:03;;;;;;;7.30;2.37;;;;;;;;;;5052318;28;20460;-77
2022/11/02 14:51:31;;;;;;;6.77;2.50;;;;;;;;;;5052698;28;20544;-77
2022/11/02 14:53:59;;;;;;;7.10;2.57;;;;;;;;;;5051825;28;20532;-77
2022/11/02 14:56:46;;;;;;;5.07;2.30;;;;;;;;;;5052382;28;20453;-78
2022/11/02 14:59:17;;;;;;;5.43;2.17;;;;;;;;;;5052307;28;20445;-77
2022/11/02 15:01:50;;;;;;;9.93;2.20;;;;;;;;;;5052262;28;20469;-77
2022/11/02 15:04:18;;;;;;;9.27;2.63;;;;;;;;;;5052761;28;20449;-77
2022/11/02 15:06:51;;;;;;;4.50;2.20;;;;;;;;;;5053081;28;20449;-77
2022/11/02 15:09:33;;;;;;;7.73;2.60;;;;;;;;;;5053106;28;20445;-76